Kynouria — V7VY6 — position and weather

sailwx.info

Track history (hours):
 
Tides and Currents Weather Stations Pressure Air Temp Water Temp Dewpoint Dewpoint Depression Visibility Wind Speed Wind Dir Waves Ship Positions

Kynouria

Last reported at 2016-Aug-06 04:18 UTC. Time now 2016-Aug-28 08:40 UTC.
Position S 30°46' E 030°43'.
Warning: this ship's position is 22 days out of date.

Length 229 m; draft 9 m.

Type: Ship. MMSI: 538004243.

Date/timePositionNaut miles runAvg speedWind from/ knotsBaromVisibWave heightAir tempDewpointWater temp
2016-Aug-06 04:18S 30°46' E 030°43'912.2
2016-Aug-06 03:33S 30°38' E 030°48'1111.1
2016-Aug-06 02:33S 30°28' E 030°53'1111.0
2016-Aug-06 01:33S 30°18' E 030°59'1211.7
2016-Aug-06 00:33S 30°08' E 031°05'15 7.6
2016-Aug-05 22:33S 29°53' E 031°03'1 0.5
2016-Aug-05 20:33S 29°53' E 031°02'0 0.0
2016-Aug-05 19:30S 29°53' E 031°02'0 0.0
2016-Aug-05 18:33S 29°53' E 031°02'0 0.0
2016-Aug-05 17:33S 29°53' E 031°02'0 0.0
2016-Aug-05 16:33S 29°53' E 031°02'0 0.0
2016-Aug-05 15:33S 29°53' E 031°02'0 0.0
2016-Aug-05 14:33S 29°53' E 031°02'0 0.0
2016-Aug-05 13:33S 29°53' E 031°02'0 0.0
2016-Aug-05 12:33S 29°53' E 031°02'0 0.0
2016-Aug-05 11:33S 29°53' E 031°02'0 0.0
2016-Aug-05 10:33S 29°53' E 031°02'4 3.7
2016-Aug-05 09:34S 29°50' E 031°05'4 4.0
2016-Aug-05 08:33S 29°51' E 031°10'1 1.0
2016-Aug-05 07:34S 29°51' E 031°11'0 0.1
2016-Aug-05 06:33S 29°51' E 031°11'5 2.4
2016-Aug-05 04:32S 29°46' E 031°09'0 0.1
2016-Aug-05 03:32S 29°46' E 031°09'0 0.0
2016-Aug-05 02:32S 29°46' E 031°09'0 0.0
2016-Aug-05 01:32S 29°46' E 031°09'0 0.0
2016-Aug-05 00:32S 29°46' E 031°09'0 0.0
2016-Aug-04 23:32S 29°46' E 031°09'0 0.0
2016-Aug-04 22:32S 29°46' E 031°09'0 0.0
2016-Aug-04 21:32S 29°46' E 031°09'0 0.0
2016-Aug-04 20:32S 29°46' E 031°09'0 0.0
2016-Aug-04 19:32S 29°46' E 031°09'0 0.0
2016-Aug-04 18:32S 29°46' E 031°09'0 0.0
2016-Aug-04 17:31S 29°46' E 031°09'0 0.0
2016-Aug-04 16:32S 29°46' E 031°09'0 0.0
2016-Aug-04 15:32S 29°46' E 031°09'0 0.0
2016-Aug-04 14:32S 29°46' E 031°09'0 0.0
2016-Aug-04 13:32S 29°46' E 031°09'0 0.1
2016-Aug-04 12:32S 29°46' E 031°09'0 0.0
2016-Aug-04 11:32S 29°46' E 031°09'0 0.0
2016-Aug-04 10:31S 29°46' E 031°09'0 0.0
2016-Aug-04 09:26S 29°46' E 031°09'0 0.0
2016-Aug-04 08:29S 29°46' E 031°09'2 2.1
2016-Aug-04 07:34S 29°48' E 031°09'3 3.2
2016-Aug-04 06:34S 29°49' E 031°13'10 5.1
2016-Aug-04 04:33S 29°42' E 031°21'8 8.2
2016-Aug-04 03:34S 29°37' E 031°28'8 7.9
2016-Aug-04 02:34S 29°31' E 031°34'8 7.6
2016-Aug-04 01:33S 29°26' E 031°41'7 6.9
2016-Aug-04 00:34S 29°22' E 031°47'6 6.1
2016-Aug-03 23:34S 29°17' E 031°52'5 5.4
2016-Aug-03 22:33S 29°14' E 031°56'5 5.2
2016-Aug-03 21:33S 29°11' E 032°01'77 9.1
2016-Aug-03 13:07S 28°20' E 033°06'  
Track history (hours):
 
Tides and Currents Weather Stations Pressure Air Temp Water Temp Dewpoint Dewpoint Depression Visibility Wind Speed Wind Dir Waves Ship Positions

Kynouria

Last reported at 2016-Aug-06 04:18 UTC. Time now 2016-Aug-28 08:40 UTC.
Position S 30°46' E 030°43'.
Warning: this ship's position is 22 days out of date.

Length 229 m; draft 9 m.

Type: Ship. MMSI: 538004243.

Date/timePositionNaut miles runAvg speedWind from/ knotsBaromVisibWave heightAir tempDewpointWater temp
2016-Aug-06 04:18S 30°46' E 030°43'912.2
2016-Aug-06 03:33S 30°38' E 030°48'1111.1
2016-Aug-06 02:33S 30°28' E 030°53'1111.0
2016-Aug-06 01:33S 30°18' E 030°59'1211.7
2016-Aug-06 00:33S 30°08' E 031°05'15 7.6
2016-Aug-05 22:33S 29°53' E 031°03'1 0.5
2016-Aug-05 20:33S 29°53' E 031°02'0 0.0
2016-Aug-05 19:30S 29°53' E 031°02'0 0.0
2016-Aug-05 18:33S 29°53' E 031°02'0 0.0
2016-Aug-05 17:33S 29°53' E 031°02'0 0.0
2016-Aug-05 16:33S 29°53' E 031°02'0 0.0
2016-Aug-05 15:33S 29°53' E 031°02'0 0.0
2016-Aug-05 14:33S 29°53' E 031°02'0 0.0
2016-Aug-05 13:33S 29°53' E 031°02'0 0.0
2016-Aug-05 12:33S 29°53' E 031°02'0 0.0
2016-Aug-05 11:33S 29°53' E 031°02'0 0.0
2016-Aug-05 10:33S 29°53' E 031°02'4 3.7
2016-Aug-05 09:34S 29°50' E 031°05'4 4.0
2016-Aug-05 08:33S 29°51' E 031°10'1 1.0
2016-Aug-05 07:34S 29°51' E 031°11'0 0.1
2016-Aug-05 06:33S 29°51' E 031°11'5 2.4
2016-Aug-05 04:32S 29°46' E 031°09'0 0.1
2016-Aug-05 03:32S 29°46' E 031°09'0 0.0
2016-Aug-05 02:32S 29°46' E 031°09'0 0.0
2016-Aug-05 01:32S 29°46' E 031°09'0 0.0
2016-Aug-05 00:32S 29°46' E 031°09'0 0.0
2016-Aug-04 23:32S 29°46' E 031°09'0 0.0
2016-Aug-04 22:32S 29°46' E 031°09'0 0.0
2016-Aug-04 21:32S 29°46' E 031°09'0 0.0
2016-Aug-04 20:32S 29°46' E 031°09'0 0.0
2016-Aug-04 19:32S 29°46' E 031°09'0 0.0
2016-Aug-04 18:32S 29°46' E 031°09'0 0.0
2016-Aug-04 17:31S 29°46' E 031°09'0 0.0
2016-Aug-04 16:32S 29°46' E 031°09'0 0.0
2016-Aug-04 15:32S 29°46' E 031°09'0 0.0
2016-Aug-04 14:32S 29°46' E 031°09'0 0.0
2016-Aug-04 13:32S 29°46' E 031°09'0 0.1
2016-Aug-04 12:32S 29°46' E 031°09'0 0.0
2016-Aug-04 11:32S 29°46' E 031°09'0 0.0
2016-Aug-04 10:31S 29°46' E 031°09'0 0.0
2016-Aug-04 09:26S 29°46' E 031°09'0 0.0
2016-Aug-04 08:29S 29°46' E 031°09'2 2.1
2016-Aug-04 07:34S 29°48' E 031°09'3 3.2
2016-Aug-04 06:34S 29°49' E 031°13'10 5.1
2016-Aug-04 04:33S 29°42' E 031°21'8 8.2
2016-Aug-04 03:34S 29°37' E 031°28'8 7.9
2016-Aug-04 02:34S 29°31' E 031°34'8 7.6
2016-Aug-04 01:33S 29°26' E 031°41'7 6.9
2016-Aug-04 00:34S 29°22' E 031°47'6 6.1
2016-Aug-03 23:34S 29°17' E 031°52'5 5.4
2016-Aug-03 22:33S 29°14' E 031°56'5 5.2
2016-Aug-03 21:33S 29°11' E 032°01'77 9.1
2016-Aug-03 13:07S 28°20' E 033°06'  

Dump ship's entire track history